Friday, January 19, 2018, 10:37 AM EST
Back to Local

KELM, Elmira County Airport

Location: Horseheads, NY, United States Lat: 42.167
Local Time: 10:37 AM EST (15:37 GMT) Lon: -76.9
Time Zone: US/Eastern Elev: 954 ft

Show me the last for .
Show Decoded

2018-01-19 09:53 METAR KELM 191453Z 23004KT 10SM CLR M06/M08 A2998 RMK AO2 SLP169 T10611078 50001
                 =
2018-01-19 08:53 METAR KELM 191353Z 00000KT 10SM CLR M11/M11 A3000 RMK AO2 SLP177 T11061106 =
2018-01-19 07:53 METAR KELM 191253Z 07004KT 6SM BR CLR M12/M14 A2998 RMK AO2 SLP172 T11171139 =
2018-01-19 06:53 METAR KELM 191153Z 00000KT 8SM CLR M14/M16 A2998 RMK AO2 SLP172 T11391156 11100
                 21172 53002 =
2018-01-19 05:53 METAR KELM 191053Z 00000KT 9SM CLR M14/M16 A2998 RMK AO2 SLP170 T11441161 =
2018-01-19 04:53 METAR KELM 190953Z AUTO 00000KT 7SM CLR M15/M17 A2997 RMK AO2 SLP167 T11501167 =
2018-01-19 04:43 METAR KELM 190943Z AUTO 00000KT 7SM CLR M14/M16 A2997 RMK AO2 T11441161 =
2018-01-19 04:36 METAR KELM 190936Z AUTO 00000KT 2 1/2SM BR CLR M16/M17 A2997 RMK AO2 T11561167 =
2018-01-19 03:53 METAR KELM 190853Z AUTO 00000KT 6SM BR CLR M14/M16 A2997 RMK AO2 SLP166
                 T11441161 50004 =
2018-01-19 02:53 METAR KELM 190753Z AUTO 00000KT 6SM BR CLR M14/M14 A2998 RMK AO2 SLP168
                 T11391144 =
2018-01-19 01:53 METAR KELM 190653Z AUTO 00000KT 7SM CLR M12/M14 A2997 RMK AO2 SLP166 T11171139 =
2018-01-19 00:53 METAR KELM 190553Z AUTO 07003KT 8SM CLR M10/M12 A2996 RMK AO2 SLP161 T11001117
                 11100 21144 56015 =
2018-01-18 23:53 METAR KELM 190453Z AUTO 00000KT 8SM CLR M11/M13 A2997 RMK AO2 SLP164 T11111128
                 410441200 =
2018-01-18 22:53 METAR KELM 190353Z 00000KT 7SM CLR M12/M14 A2998 RMK AO2 SLP170 T11221139 =
2018-01-18 21:53 METAR KELM 190253Z 00000KT 8SM CLR M13/M14 A3000 RMK AO2 SLP179 T11281144 58004
                 =
2018-01-18 20:53 METAR KELM 190153Z 00000KT 8SM CLR M13/M14 A3001 RMK AO2 SLP186 T11281144 =
2018-01-18 19:53 METAR KELM 190053Z 00000KT 8SM CLR M12/M14 A3002 RMK AO2 SLP187 T11221144 =
2018-01-18 18:53 METAR KELM 182353Z 00000KT 10SM CLR M12/M15 A3001 RMK AO2 SLP186 T11221150 11044
                 21122 53004 =
2018-01-18 17:53 METAR KELM 182253Z 24004KT 10SM CLR M07/M12 A3000 RMK AO2 SLP179 T10721122 =
2018-01-18 16:53 METAR KELM 182153Z 24005KT 10SM CLR M05/M12 A3000 RMK AO2 SLP176 T10501122 =
2018-01-18 15:53 METAR KELM 182053Z 26009KT 10SM CLR M04/M12 A3000 RMK AO2 SLP176 T10441117 55009
                 =
2018-01-18 14:53 METAR KELM 181953Z 24010KT 10SM CLR M05/M12 A3000 RMK AO2 SLP174 T10501117 =
2018-01-18 13:53 METAR KELM 181853Z 25008KT 10SM CLR M05/M12 A3000 RMK AO2 SLP176 T10501122 =
2018-01-18 12:53 METAR KELM 181753Z 24011KT 10SM CLR M06/M12 A3003 RMK AO2 SLP185 T10561122 11056
                 21200 58014 =
2018-01-18 11:53 METAR KELM 181653Z 28011KT 10SM CLR M06/M13 A3005 RMK AO2 SLP192 T10611133 =
2018-01-18 10:53 METAR KELM 181553Z 26009G16KT 10SM CLR M07/M14 A3007 RMK AO2 SLP199 T10721139 =

Support USWX by starting your Amazon purchase here.